Time;durP1;ratioP1;P1;durP2;ratioP2;P2;SDS_P1;SDS_P2;PMS_P1;PMS_P2;Temp;Humidity;BMP_temperature;BMP_pressure;BME280_temperature;BME280_humidity;BME280_pressure;Samples;Min_cycle;Max_cycle;Signal;HPM_P1;HPM_P2
2023/01/30 00:01:43;;;;;;;19.83;9.70;;;;;;;-0.19;62.80;95231.78;5063865;28;20039;-79
2023/01/30 00:04:11;;;;;;;18.05;8.95;;;;;;;-0.22;62.82;95219.00;5064479;28;20112;-76
2023/01/30 00:06:37;;;;;;;16.45;9.13;;;;;;;-0.23;62.66;95217.41;5065295;28;20043;-77
2023/01/30 00:09:02;;;;;;;16.20;9.18;;;;;;;-0.25;62.70;95217.78;5064980;28;20123;-76
2023/01/30 00:11:28;;;;;;;18.27;9.40;;;;;;;-0.28;62.75;95216.59;5067220;28;20051;-77
2023/01/30 00:13:54;;;;;;;21.17;10.13;;;;;;;-0.30;62.96;95216.16;5064338;28;20039;-78
2023/01/30 00:16:19;;;;;;;21.15;11.10;;;;;;;-0.29;63.45;95216.94;5065442;28;20028;-78
2023/01/30 00:18:45;;;;;;;20.48;10.23;;;;;;;-0.22;63.29;95219.78;5064959;28;20040;-78
2023/01/30 00:21:13;;;;;;;22.30;10.13;;;;;;;-0.24;63.28;95222.06;5064289;28;20074;-77
2023/01/30 00:23:38;;;;;;;20.90;10.93;;;;;;;-0.32;63.31;95226.56;5063558;28;20028;-76
2023/01/30 00:26:05;;;;;;;18.60;9.57;;;;;;;-0.35;63.63;95219.16;5065627;28;20050;-78
2023/01/30 00:28:31;;;;;;;19.00;9.75;;;;;;;-0.37;63.53;95217.97;5064992;28;20024;-76
2023/01/30 00:30:57;;;;;;;17.58;9.48;;;;;;;-0.45;63.64;95219.00;5063967;28;20094;-77
2023/01/30 00:33:24;;;;;;;19.08;8.75;;;;;;;-0.55;63.94;95215.75;5064231;28;20044;-76
2023/01/30 00:35:51;;;;;;;17.20;8.88;;;;;;;-0.58;63.87;95213.75;5063612;28;20050;-77
2023/01/30 00:38:17;;;;;;;20.30;9.57;;;;;;;-0.65;63.89;95202.03;5064450;28;20033;-76
2023/01/30 00:40:43;;;;;;;17.30;8.32;;;;;;;-0.68;64.40;95208.94;5063985;28;20038;-77
2023/01/30 00:48:43;;;;;;;17.95;8.82;;;;;;;-0.58;64.00;95200.25;5073670;28;20125;-78
2023/01/30 00:51:09;;;;;;;17.08;8.50;;;;;;;-0.52;63.96;95202.66;5085797;28;20051;-76
2023/01/30 00:53:35;;;;;;;16.35;7.97;;;;;;;-0.42;63.92;95202.84;5083159;28;20085;-77
2023/01/30 00:56:01;;;;;;;15.63;8.77;;;;;;;-0.47;63.72;95202.34;5055770;28;20024;-76
2023/01/30 00:58:26;;;;;;;19.25;9.52;;;;;;;-0.64;64.29;95190.88;5063307;28;20113;-77
2023/01/30 01:00:52;;;;;;;18.63;9.55;;;;;;;-0.67;64.37;95202.41;5061872;28;20499;-76
2023/01/30 01:03:18;;;;;;;18.02;8.77;;;;;;;-0.65;64.69;95202.81;5064394;28;20414;-77
2023/01/30 01:05:44;;;;;;;16.00;9.43;;;;;;;-0.76;64.52;95182.16;5067930;28;20055;-75
2023/01/30 01:08:10;;;;;;;19.48;9.25;;;;;;;-0.67;64.51;95198.94;5066180;28;20024;-78
2023/01/30 01:10:35;;;;;;;19.85;9.27;;;;;;;-0.75;64.90;95203.41;5045746;28;20039;-76
2023/01/30 01:13:02;;;;;;;17.42;8.80;;;;;;;-0.77;64.95;95194.09;5063651;28;20101;-77
2023/01/30 01:15:27;;;;;;;16.25;8.38;;;;;;;-0.89;65.34;95190.44;5064021;28;20036;-78
2023/01/30 01:17:53;;;;;;;17.02;8.75;;;;;;;-0.84;65.08;95197.47;5063863;28;20041;-77
2023/01/30 01:20:20;;;;;;;17.27;8.20;;;;;;;-0.85;65.19;95191.28;5061612;28;20098;-75
2023/01/30 01:22:49;;;;;;;16.38;8.30;;;;;;;-0.90;65.17;95185.38;5063174;28;20039;-77
2023/01/30 01:25:14;;;;;;;19.73;8.60;;;;;;;-1.03;65.54;95176.69;5063590;28;20036;-76
2023/01/30 01:27:40;;;;;;;15.15;8.25;;;;;;;-1.08;65.84;95176.97;5063057;28;20436;-76
2023/01/30 01:30:06;;;;;;;15.48;7.55;;;;;;;-1.05;66.08;95170.84;5063811;28;20051;-74
2023/01/30 01:32:32;;;;;;;16.52;8.23;;;;;;;-1.13;66.30;95175.31;5062193;28;20077;-76
2023/01/30 01:34:57;;;;;;;13.88;8.13;;;;;;;-1.11;66.22;95170.34;5064125;28;20020;-77
2023/01/30 01:37:23;;;;;;;14.40;7.85;;;;;;;-1.00;65.89;95175.94;5061701;28;20040;-77
2023/01/30 01:42:33;;;;;;;;;;;;;;;-0.86;65.29;95175.41;5065090;28;20069;-75
2023/01/30 01:45:15;;;;;;;14.30;6.85;;;;;;;-0.86;65.42;95178.13;5062288;28;19913;-76
2023/01/30 01:48:23;;;;;;;18.55;8.68;;;;;;;-0.86;65.30;95178.13;5064254;28;20036;-76
2023/01/30 01:50:53;;;;;;;14.25;7.80;;;;;;;-0.83;65.12;95180.91;5059778;28;20036;-76
2023/01/30 01:53:20;;;;;;;14.57;7.47;;;;;;;-0.74;64.90;95179.91;5061432;28;20032;-76
2023/01/30 01:55:48;;;;;;;17.73;7.80;;;;;;;-0.60;64.57;95177.44;5083931;28;20035;-77
2023/01/30 01:58:22;;;;;;;14.13;7.80;;;;;;;-0.61;64.28;95171.28;5083529;28;20036;-76
2023/01/30 02:00:48;;;;;;;16.58;8.75;;;;;;;-0.61;64.25;95173.19;5066151;28;20029;-77
2023/01/30 02:03:20;;;;;;;16.38;7.30;;;;;;;-0.62;64.23;95177.03;5047911;28;20048;-75
2023/01/30 02:05:50;;;;;;;16.58;8.18;;;;;;;-0.60;64.36;95174.75;5062308;28;20032;-77
2023/01/30 02:08:28;;;;;;;16.23;8.27;;;;;;;-0.67;64.45;95177.31;5069832;28;20032;-77
2023/01/30 02:11:01;;;;;;;15.30;7.38;;;;;;;-0.68;64.59;95179.25;5077571;28;20077;-76
2023/01/30 02:13:27;;;;;;;15.05;6.97;;;;;;;-0.67;64.58;95178.09;5067281;28;20052;-76
2023/01/30 02:15:52;;;;;;;15.50;7.65;;;;;;;-0.64;64.70;95174.66;5065180;28;20104;-77
2023/01/30 02:18:18;;;;;;;16.67;8.35;;;;;;;-0.54;64.72;95178.72;5065751;28;20487;-76
2023/01/30 02:20:46;;;;;;;16.17;7.93;;;;;;;-0.47;63.96;95176.13;5066098;28;20530;-78
2023/01/30 02:23:26;;;;;;;19.35;8.65;;;;;;;-0.48;64.09;95168.38;5065996;28;20503;-77
2023/01/30 02:26:00;;;;;;;15.73;7.60;;;;;;;-0.42;63.47;95173.13;5049780;28;20119;-77
2023/01/30 02:28:48;;;;;;;13.88;7.20;;;;;;;-0.43;63.43;95176.19;5066840;28;20081;-77
2023/01/30 02:31:13;;;;;;;16.23;7.72;;;;;;;-0.42;63.46;95175.06;5067848;28;20032;-77
2023/01/30 02:33:42;;;;;;;17.02;8.10;;;;;;;-0.40;63.45;95178.16;5067116;28;20461;-75
2023/01/30 02:36:26;;;;;;;15.70;7.63;;;;;;;-0.31;62.76;95173.31;5066368;28;20050;-76
2023/01/30 02:39:11;;;;;;;13.93;6.88;;;;;;;-0.25;62.83;95173.78;5066236;28;20119;-78
2023/01/30 02:41:56;;;;;;;16.13;7.63;;;;;;;-0.18;62.53;95160.38;5064273;28;20017;-76
2023/01/30 02:44:21;;;;;;;15.40;7.15;;;;;;;-0.21;62.65;95174.63;5067177;28;20036;-77
2023/01/30 02:46:56;;;;;;;15.90;8.07;;;;;;;-0.20;62.70;95163.44;5064944;28;20334;-77
2023/01/30 02:49:28;;;;;;;18.08;8.07;;;;;;;-0.16;62.80;95163.53;5048740;28;20059;-76
2023/01/30 02:51:53;;;;;;;14.57;7.75;;;;;;;-0.15;62.72;95160.44;5065910;28;20040;-77
2023/01/30 02:54:19;;;;;;;14.32;7.68;;;;;;;-0.09;62.34;95161.69;5064877;28;20394;-76
2023/01/30 02:56:48;;;;;;;13.98;7.18;;;;;;;-0.04;61.79;95161.41;5069440;28;20032;-79
2023/01/30 02:59:21;;;;;;;13.75;6.88;;;;;;;-0.07;61.81;95166.72;5069478;28;20056;-78
2023/01/30 03:01:59;;;;;;;13.65;7.15;;;;;;;-0.21;61.72;95155.72;5078484;28;20051;-77
2023/01/30 03:04:30;;;;;;;13.70;7.25;;;;;;;-0.20;61.91;95168.06;5087409;28;20097;-77
2023/01/30 03:07:14;;;;;;;12.85;7.80;;;;;;;-0.18;61.75;95171.19;5075131;28;20035;-77
2023/01/30 03:10:05;;;;;;;13.25;7.38;;;;;;;-0.16;61.95;95164.28;5066724;28;20117;-78
2023/01/30 03:12:36;;;;;;;15.80;8.02;;;;;;;-0.12;61.98;95153.53;5064639;28;20029;-77
2023/01/30 03:15:11;;;;;;;18.48;8.10;;;;;;;-0.08;62.03;95140.84;5066467;28;20033;-78
2023/01/30 03:17:39;;;;;;;17.88;9.25;;;;;;;-0.06;61.88;95150.19;5065461;28;20052;-78
2023/01/30 03:20:06;;;;;;;13.60;7.45;;;;;;;-0.01;61.67;95154.47;5063591;28;20491;-78
2023/01/30 03:22:31;;;;;;;14.55;7.22;;;;;;;-0.01;61.90;95144.44;5065710;28;20029;-77
2023/01/30 03:24:57;;;;;;;17.15;8.30;;;;;;;-0.03;61.53;95130.50;5063328;28;20029;-78
2023/01/30 03:27:22;;;;;;;14.60;7.72;;;;;;;-0.08;61.70;95132.75;5066700;28;20098;-78
2023/01/30 03:29:48;;;;;;;13.85;7.18;;;;;;;-0.17;61.75;95122.22;5066066;28;20418;-77
2023/01/30 03:32:13;;;;;;;13.20;7.15;;;;;;;-0.15;61.60;95124.53;5063104;28;20087;-76
2023/01/30 03:34:38;;;;;;;13.15;6.90;;;;;;;-0.22;61.47;95124.44;5066357;28;20024;-77
2023/01/30 03:37:04;;;;;;;13.93;7.32;;;;;;;-0.34;61.80;95123.50;5047716;28;20112;-78
2023/01/30 03:39:30;;;;;;;14.23;7.57;;;;;;;-0.39;62.08;95120.31;5066525;28;20054;-77
2023/01/30 03:41:55;;;;;;;15.40;7.32;;;;;;;-0.37;62.13;95116.09;5063730;28;20024;-77
2023/01/30 03:44:21;;;;;;;14.63;7.22;;;;;;;-0.32;62.30;95120.41;5065400;28;20041;-77
2023/01/30 03:46:46;;;;;;;16.27;7.40;;;;;;;-0.33;62.35;95116.94;5062315;28;20032;-77
2023/01/30 03:49:11;;;;;;;13.43;7.63;;;;;;;-0.28;62.12;95118.56;5064312;28;20036;-76
2023/01/30 03:51:37;;;;;;;13.60;7.18;;;;;;;-0.28;62.25;95113.94;5064434;28;20031;-77
2023/01/30 03:54:02;;;;;;;13.55;7.82;;;;;;;-0.30;61.71;95108.09;5068071;28;20043;-76
2023/01/30 03:56:28;;;;;;;14.68;7.85;;;;;;;-0.40;61.74;95108.72;5066794;28;20035;-78
2023/01/30 03:58:53;;;;;;;15.40;8.02;;;;;;;-0.47;61.95;95113.22;5064355;28;20028;-77
2023/01/30 04:01:18;;;;;;;14.88;7.50;;;;;;;-0.54;62.30;95105.78;5066126;28;20046;-77
2023/01/30 04:03:45;;;;;;;13.38;7.55;;;;;;;-0.60;62.58;95113.41;5064455;28;20063;-77
2023/01/30 04:06:10;;;;;;;14.70;8.30;;;;;;;-0.67;62.96;95112.53;5064751;28;20071;-75
2023/01/30 04:08:35;;;;;;;12.77;7.13;;;;;;;-0.67;62.95;95107.91;5064117;28;20028;-77
2023/01/30 04:11:01;;;;;;;15.60;6.75;;;;;;;-0.71;63.08;95106.28;5065409;28;20028;-77
2023/01/30 04:13:26;;;;;;;13.65;6.38;;;;;;;-0.72;63.47;95108.19;5064460;28;20078;-76
2023/01/30 04:15:52;;;;;;;12.40;6.30;;;;;;;-0.76;63.39;95101.94;5062733;28;20035;-77
2023/01/30 04:18:17;;;;;;;13.52;6.72;;;;;;;-0.83;63.80;95102.63;5064681;28;20044;-78
2023/01/30 04:20:43;;;;;;;13.07;7.53;;;;;;;-0.86;63.96;95105.25;5065519;28;20039;-76
2023/01/30 04:23:08;;;;;;;16.48;8.20;;;;;;;-0.84;64.09;95113.78;5067857;28;20368;-78
2023/01/30 04:25:34;;;;;;;14.68;7.63;;;;;;;-0.84;64.18;95108.38;5063347;28;20032;-78
2023/01/30 04:27:59;;;;;;;13.93;7.32;;;;;;;-0.80;64.26;95109.22;5065411;28;20064;-77
2023/01/30 04:30:24;;;;;;;15.38;8.18;;;;;;;-0.74;64.00;95107.78;5063802;28;20031;-77
2023/01/30 04:32:50;;;;;;;16.02;7.95;;;;;;;-0.74;64.14;95098.91;5063613;28;20107;-77
2023/01/30 04:35:15;;;;;;;15.82;8.35;;;;;;;-0.64;63.84;95104.47;5064015;28;20029;-76
2023/01/30 04:37:41;;;;;;;14.32;8.18;;;;;;;-0.62;63.76;95104.91;5046117;28;20041;-78
2023/01/30 04:40:07;;;;;;;14.23;8.68;;;;;;;-0.56;63.68;95106.16;5065017;28;20041;-76
2023/01/30 04:42:32;;;;;;;13.90;7.28;;;;;;;-0.52;63.71;95105.41;5062025;28;20463;-78
2023/01/30 04:44:58;;;;;;;19.17;8.05;;;;;;;-0.50;63.47;95109.34;5065088;28;20043;-77
2023/01/30 04:47:23;;;;;;;14.98;8.13;;;;;;;-0.49;63.36;95091.22;5064476;28;20862;-78
2023/01/30 04:49:48;;;;;;;15.68;8.88;;;;;;;-0.58;63.45;95076.00;5067690;28;20025;-76
2023/01/30 04:52:14;;;;;;;14.88;7.90;;;;;;;-0.47;63.65;95092.38;5065357;28;20025;-78
2023/01/30 04:54:39;;;;;;;17.00;8.18;;;;;;;-0.47;63.53;95089.69;5064465;28;20107;-78
2023/01/30 04:57:04;;;;;;;15.45;8.55;;;;;;;-0.68;63.76;95068.53;5065173;28;20477;-78
2023/01/30 04:59:30;;;;;;;17.88;9.13;;;;;;;-0.70;64.09;95083.53;5064591;28;20028;-78
2023/01/30 05:01:55;;;;;;;16.70;8.90;;;;;;;-0.75;64.48;95079.22;5064487;28;20468;-78
2023/01/30 05:04:21;;;;;;;16.23;8.93;;;;;;;-0.70;64.72;95078.13;5062284;28;20104;-78
2023/01/30 05:06:46;;;;;;;15.77;8.48;;;;;;;-0.67;64.44;95083.59;5063515;28;20036;-77
2023/01/30 05:09:11;;;;;;;17.77;9.23;;;;;;;-0.67;64.40;95085.53;5063196;28;20033;-78
2023/01/30 05:11:37;;;;;;;17.17;9.00;;;;;;;-0.72;65.01;95083.13;5064757;28;20459;-78
2023/01/30 05:14:02;;;;;;;16.02;8.90;;;;;;;-0.76;65.13;95076.88;5045212;28;20147;-76
2023/01/30 05:16:28;;;;;;;18.98;9.68;;;;;;;-0.76;65.12;95082.28;5064412;28;20032;-77
2023/01/30 05:18:54;;;;;;;20.88;9.18;;;;;;;-0.75;65.32;95084.59;5062940;28;20568;-78
2023/01/30 05:21:22;;;;;;;21.55;9.32;;;;;;;-0.75;65.51;95079.22;5060405;28;20036;-77
2023/01/30 05:23:48;;;;;;;21.05;9.65;;;;;;;-0.78;65.73;95088.03;5063478;28;20115;-76
2023/01/30 05:26:14;;;;;;;18.00;9.10;;;;;;;-0.79;65.93;95093.81;5045829;28;20123;-77
2023/01/30 05:28:40;;;;;;;19.42;10.10;;;;;;;-0.78;66.04;95088.03;5063644;28;20051;-78
2023/01/30 05:31:08;;;;;;;21.05;9.90;;;;;;;-0.90;66.01;95080.13;5062084;28;20074;-77
2023/01/30 05:33:33;;;;;;;22.75;10.38;;;;;;;-0.82;65.98;95087.19;5063186;28;20115;-78
2023/01/30 05:35:59;;;;;;;24.52;10.60;;;;;;;-0.77;66.44;95094.22;5063788;28;20115;-77
2023/01/30 05:38:25;;;;;;;21.27;10.63;;;;;;;-0.81;66.31;95105.72;5060265;28;20032;-76
2023/01/30 05:41:01;;;;;;;24.52;10.60;;;;;;;-0.84;66.42;95101.06;5045352;28;20499;-77
2023/01/30 05:43:27;;;;;;;25.58;11.77;;;;;;;-0.85;66.46;95091.41;5062116;28;20081;-76
2023/01/30 05:45:57;;;;;;;21.10;10.98;;;;;;;-0.78;66.20;95095.38;5063984;28;20028;-76
2023/01/30 05:48:23;;;;;;;23.17;11.13;;;;;;;-0.74;65.97;95098.91;5069959;28;20068;-76
2023/01/30 05:50:50;;;;;;;20.92;11.10;;;;;;;-0.77;65.75;95096.91;5068319;28;20483;-76
2023/01/30 05:53:16;;;;;;;28.55;11.60;;;;;;;-0.73;65.93;95101.25;5067080;28;20052;-75
2023/01/30 05:55:42;;;;;;;23.13;11.85;;;;;;;-0.70;65.98;95100.50;5064704;28;20048;-76
2023/01/30 05:58:08;;;;;;;25.77;10.88;;;;;;;-0.71;65.75;95107.06;5068248;28;20028;-76
2023/01/30 06:00:33;;;;;;;23.33;12.07;;;;;;;-0.71;65.86;95101.66;5071343;28;20032;-77
2023/01/30 06:02:59;;;;;;;24.85;11.52;;;;;;;-0.69;65.80;95104.00;5088373;28;20040;-77
2023/01/30 06:05:24;;;;;;;25.98;11.77;;;;;;;-0.60;65.53;95101.84;5078751;28;20028;-77
2023/01/30 06:07:50;;;;;;;22.30;12.50;;;;;;;-0.52;65.19;95100.03;5066907;28;20028;-77
2023/01/30 06:10:15;;;;;;;23.20;11.40;;;;;;;-0.48;65.20;95109.75;5068154;28;20024;-77
2023/01/30 06:12:41;;;;;;;22.73;11.52;;;;;;;-0.46;65.29;95104.78;5064044;28;20028;-76
2023/01/30 06:15:07;;;;;;;24.83;12.18;;;;;;;-0.42;64.94;95102.91;5063368;28;20059;-79
2023/01/30 06:17:32;;;;;;;28.25;13.38;;;;;;;-0.48;65.01;95101.66;5065636;28;20048;-77
2023/01/30 06:19:58;;;;;;;26.52;12.73;;;;;;;-0.44;65.02;95093.59;5066685;28;20108;-78
2023/01/30 06:22:23;;;;;;;27.65;13.70;;;;;;;-0.51;65.19;95098.91;5082872;28;20047;-75
2023/01/30 06:24:48;;;;;;;27.73;12.55;;;;;;;-0.50;65.53;95095.84;5065898;28;20028;-77
2023/01/30 06:27:14;;;;;;;29.73;12.93;;;;;;;-0.51;65.53;95090.81;5067166;28;20115;-78
2023/01/30 06:29:39;;;;;;;26.48;12.45;;;;;;;-0.58;65.54;95100.31;5068195;28;20430;-77
2023/01/30 06:32:05;;;;;;;24.60;11.90;;;;;;;-0.59;65.25;95092.59;5065973;28;20058;-77
2023/01/30 06:34:30;;;;;;;23.98;11.35;;;;;;;-0.61;65.42;95101.06;5064946;28;20535;-75
2023/01/30 06:36:55;;;;;;;27.83;13.13;;;;;;;-0.54;65.03;95095.00;5068049;28;20086;-77
2023/01/30 06:39:21;;;;;;;20.80;11.13;;;;;;;-0.53;64.74;95093.84;5063773;28;20032;-75
2023/01/30 06:41:47;;;;;;;27.60;13.98;;;;;;;-0.56;64.84;95094.59;5069608;28;20040;-79
2023/01/30 06:44:12;;;;;;;24.83;11.05;;;;;;;-0.47;65.00;95097.78;5070417;28;20028;-77
2023/01/30 06:46:37;;;;;;;25.10;12.85;;;;;;;-0.44;65.02;95094.38;5065020;28;20519;-77
2023/01/30 06:49:03;;;;;;;25.40;12.20;;;;;;;-0.38;64.53;95101.03;5043946;28;20497;-77
2023/01/30 06:51:29;;;;;;;32.72;13.93;;;;;;;-0.39;64.34;95096.00;5058559;28;20538;-77
2023/01/30 06:53:54;;;;;;;24.95;13.23;;;;;;;-0.37;64.42;95099.13;5065997;28;20512;-77
2023/01/30 06:56:20;;;;;;;23.60;12.00;;;;;;;-0.38;64.34;95103.75;5065938;28;20533;-76
2023/01/30 06:58:45;;;;;;;25.08;13.38;;;;;;;-0.42;64.33;95108.28;5066650;28;20048;-76
2023/01/30 07:01:11;;;;;;;27.35;13.70;;;;;;;-0.46;64.07;95104.78;5064252;28;20033;-77
2023/01/30 07:03:37;;;;;;;23.80;11.73;;;;;;;-0.49;64.42;95102.00;5065934;28;20032;-76
2023/01/30 07:06:02;;;;;;;22.08;12.30;;;;;;;-0.43;64.67;95106.75;5065955;28;20043;-76
2023/01/30 07:08:28;;;;;;;27.05;13.15;;;;;;;-0.40;64.41;95105.22;5065746;28;20040;-77
2023/01/30 07:10:53;;;;;;;25.45;11.93;;;;;;;-0.44;64.11;95110.59;5064834;28;20098;-76
2023/01/30 07:13:22;;;;;;;26.33;11.52;;;;;;;-0.40;64.12;95114.13;5062628;28;20041;-76
2023/01/30 07:15:47;;;;;;;23.55;11.18;;;;;;;-0.50;64.29;95112.03;5064519;28;20398;-78
2023/01/30 07:18:12;;;;;;;26.23;12.35;;;;;;;-0.50;64.34;95106.63;5064076;28;20055;-77
2023/01/30 07:20:38;;;;;;;23.73;12.10;;;;;;;-0.48;64.00;95104.34;5065977;28;20094;-77
2023/01/30 07:23:04;;;;;;;27.67;13.70;;;;;;;-0.40;63.86;95119.53;5066607;28;20593;-76
2023/01/30 07:25:29;;;;;;;27.52;12.40;;;;;;;-0.39;63.79;95107.59;5064634;28;20067;-76
2023/01/30 07:28:00;;;;;;;28.13;12.90;;;;;;;-0.36;63.96;95106.84;5064324;28;20060;-77
2023/01/30 07:30:27;;;;;;;26.13;11.27;;;;;;;-0.31;63.10;95113.88;5061543;28;20096;-77
2023/01/30 07:32:54;;;;;;;21.52;10.10;;;;;;;-0.32;62.27;95118.50;5065320;28;20029;-77
2023/01/30 07:35:21;;;;;;;19.60;9.48;;;;;;;-0.36;61.74;95125.75;5048000;28;20112;-78
2023/01/30 07:37:47;;;;;;;18.63;9.57;;;;;;;-0.38;61.76;95124.56;5062526;28;20036;-76
2023/01/30 07:40:14;;;;;;;18.10;9.20;;;;;;;-0.36;61.96;95131.16;5066624;28;20067;-76
2023/01/30 07:42:39;;;;;;;22.95;10.70;;;;;;;-0.32;62.55;95123.91;5064592;28;20033;-76
2023/01/30 07:45:05;;;;;;;22.42;11.20;;;;;;;-0.21;62.68;95126.00;5066394;28;20031;-77
2023/01/30 07:47:32;;;;;;;23.77;11.02;;;;;;;-0.17;62.65;95130.31;5065922;28;20121;-77
2023/01/30 07:49:57;;;;;;;21.30;10.40;;;;;;;-0.22;62.98;95129.84;5066188;28;20036;-76
2023/01/30 07:52:23;;;;;;;20.50;10.80;;;;;;;-0.16;63.48;95125.69;5065851;28;20039;-78
2023/01/30 07:54:48;;;;;;;17.90;9.82;;;;;;;-0.12;62.94;95123.78;5065335;28;20394;-76
2023/01/30 07:57:14;;;;;;;17.48;10.20;;;;;;;-0.04;62.70;95112.75;5064320;28;20048;-76
2023/01/30 07:59:39;;;;;;;22.23;10.85;;;;;;;0.04;62.59;95105.50;5082593;28;20482;-78
2023/01/30 08:02:05;;;;;;;24.23;10.55;;;;;;;0.10;62.60;95112.16;5086357;28;20024;-77
2023/01/30 08:04:32;;;;;;;21.38;9.38;;;;;;;0.14;62.33;95096.78;5080767;28;20046;-78
2023/01/30 08:06:57;;;;;;;18.27;11.02;;;;;;;0.12;62.26;95103.69;5047105;28;20044;-76
2023/01/30 08:09:23;;;;;;;20.40;9.75;;;;;;;0.13;62.54;95089.81;5064763;28;20020;-76
2023/01/30 08:11:48;;;;;;;20.92;10.15;;;;;;;0.11;62.47;95102.91;5086287;28;20402;-78
2023/01/30 08:14:14;;;;;;;17.00;9.48;;;;;;;0.10;61.92;95101.34;5075744;28;20531;-77
2023/01/30 08:16:39;;;;;;;19.42;9.00;;;;;;;0.07;62.28;95096.69;5064174;28;20032;-78
2023/01/30 08:19:05;;;;;;;19.02;9.80;;;;;;;-0.07;62.51;95094.53;5065331;28;20048;-78
2023/01/30 08:21:30;;;;;;;19.52;10.05;;;;;;;-0.08;62.27;95090.28;5062954;28;20043;-77
2023/01/30 08:23:56;;;;;;;20.27;9.57;;;;;;;-0.08;62.79;95087.59;5063995;28;20028;-76
2023/01/30 08:26:21;;;;;;;18.70;9.65;;;;;;;-0.15;62.94;95084.78;5062558;28;20039;-75
2023/01/30 08:28:47;;;;;;;20.30;9.50;;;;;;;-0.16;62.98;95085.94;5046583;28;20056;-75
2023/01/30 08:31:14;;;;;;;16.23;9.30;;;;;;;-0.13;63.05;95087.13;5060394;28;20544;-77
2023/01/30 08:33:39;;;;;;;18.35;10.38;;;;;;;-0.11;63.08;95074.03;5063735;28;20036;-76
2023/01/30 08:36:05;;;;;;;18.30;10.18;;;;;;;-0.05;62.56;95075.28;5063957;28;20040;-77
2023/01/30 08:38:30;;;;;;;22.67;10.13;;;;;;;-0.01;62.47;95078.78;5077732;28;20024;-76
2023/01/30 08:40:56;;;;;;;18.48;9.23;;;;;;;0.06;62.29;95073.50;5064371;28;20056;-77
2023/01/30 08:43:22;;;;;;;18.83;8.73;;;;;;;0.11;61.96;95077.78;5061834;28;20028;-77
2023/01/30 08:45:48;;;;;;;19.05;9.73;;;;;;;0.18;61.77;95067.88;5061860;28;20028;-77
2023/01/30 08:48:13;;;;;;;18.25;9.25;;;;;;;0.27;61.06;95075.69;5062879;28;20527;-77
2023/01/30 08:50:39;;;;;;;20.70;8.77;;;;;;;0.34;61.07;95072.28;5064282;28;20082;-77
2023/01/30 08:53:06;;;;;;;15.65;8.75;;;;;;;0.45;60.68;95070.50;5062475;28;20036;-76
2023/01/30 08:55:32;;;;;;;17.83;9.23;;;;;;;0.47;59.93;95068.22;5061702;28;20051;-75
2023/01/30 08:57:57;;;;;;;16.35;8.43;;;;;;;0.45;59.70;95063.16;5064735;28;20103;-77
2023/01/30 09:00:22;;;;;;;15.13;8.25;;;;;;;0.41;59.89;95062.34;5064667;28;20044;-76
2023/01/30 09:02:52;;;;;;;16.15;8.85;;;;;;;0.35;59.94;95057.63;5065062;28;20125;-76
2023/01/30 09:05:17;;;;;;;14.10;7.47;;;;;;;0.29;60.14;95059.88;5064447;28;20047;-77
2023/01/30 09:07:43;;;;;;;15.45;8.13;;;;;;;0.32;60.28;95056.44;5063460;28;20111;-76
2023/01/30 09:10:09;;;;;;;13.85;7.90;;;;;;;0.19;60.48;95049.72;5046441;28;20060;-76
2023/01/30 09:12:34;;;;;;;16.10;8.68;;;;;;;0.13;60.78;95056.59;5064864;28;20052;-77
2023/01/30 09:15:00;;;;;;;16.92;8.77;;;;;;;0.17;60.38;95066.31;5063073;28;20419;-75
2023/01/30 09:17:25;;;;;;;12.43;7.13;;;;;;;0.01;60.99;95054.13;5062524;28;20105;-76
2023/01/30 09:19:50;;;;;;;12.93;7.00;;;;;;;-0.02;61.10;95056.38;5063646;28;20405;-77
2023/01/30 09:22:16;;;;;;;15.32;8.32;;;;;;;-0.05;61.05;95046.31;5068867;28;20410;-76
2023/01/30 09:24:42;;;;;;;15.32;7.50;;;;;;;0.00;61.20;95042.53;5067857;28;20086;-76
2023/01/30 09:27:07;;;;;;;13.40;6.75;;;;;;;-0.01;61.43;95043.66;5068977;28;20094;-77
2023/01/30 09:29:33;;;;;;;17.38;7.53;;;;;;;-0.02;61.30;95047.50;5070245;28;20035;-75
2023/01/30 09:31:58;;;;;;;13.30;8.00;;;;;;;-0.02;61.29;95044.81;5070373;28;20024;-77
2023/01/30 09:34:27;;;;;;;15.60;7.93;;;;;;;-0.02;61.61;95050.19;5067898;28;20039;-76
2023/01/30 09:37:00;;;;;;;16.48;7.30;;;;;;;0.03;61.43;95047.19;5067490;28;20520;-77
2023/01/30 09:39:26;;;;;;;13.40;7.20;;;;;;;0.07;61.26;95037.22;5067068;28;20024;-77
2023/01/30 09:42:04;;;;;;;13.43;8.05;;;;;;;0.05;61.41;95038.69;5050315;28;20278;-77
2023/01/30 09:44:31;;;;;;;14.32;7.13;;;;;;;0.08;61.54;95036.06;5067920;28;20032;-77
2023/01/30 09:47:21;;;;;;;14.90;8.30;;;;;;;0.06;61.29;95034.84;5068497;28;20071;-76
2023/01/30 09:50:15;;;;;;;15.30;8.02;;;;;;;0.05;61.66;95031.38;5068277;28;20032;-78
2023/01/30 09:52:56;;;;;;;14.23;8.50;;;;;;;0.04;61.79;95037.94;5068248;28;20032;-75
2023/01/30 09:55:24;;;;;;;15.93;8.88;;;;;;;0.10;61.54;95025.66;5066966;28;20131;-77
2023/01/30 09:57:50;;;;;;;18.20;9.52;;;;;;;0.08;61.38;95027.16;5066364;28;20414;-77
2023/01/30 10:00:24;;;;;;;19.20;9.73;;;;;;;-0.08;61.38;95030.06;5067628;28;20613;-76
2023/01/30 10:02:57;;;;;;;;;;;;;;;-0.16;61.22;95023.00;5067103;28;20025;-77
2023/01/30 10:05:54;;;;;;;14.20;7.77;;;;;;;-0.26;61.66;95016.31;5066542;28;20058;-77
2023/01/30 10:08:40;;;;;;;20.45;9.02;;;;;;;-0.33;61.28;95002.69;5067516;28;20075;-76
2023/01/30 10:11:11;;;;;;;14.35;7.40;;;;;;;-0.44;61.11;95001.78;5067662;28;20060;-77
2023/01/30 10:14:16;;;;;;;15.77;7.30;;;;;;;-0.44;61.41;94990.97;5068227;28;20040;-76
2023/01/30 10:17:20;;;;;;;19.33;8.70;;;;;;;-0.47;60.58;94987.06;5067778;28;20164;-78
2023/01/30 10:20:12;;;;;;;16.33;8.98;;;;;;;-0.48;60.78;94990.91;5064838;28;20040;-77
2023/01/30 10:23:03;;;;;;;18.48;9.13;;;;;;;-0.42;61.07;94991.38;5066007;28;20039;-77
2023/01/30 10:25:48;;;;;;;17.67;8.63;;;;;;;-0.30;60.16;94973.00;5067451;28;20169;-77
2023/01/30 10:28:19;;;;;;;17.88;9.23;;;;;;;-0.27;60.22;94974.22;5067464;28;20511;-77
2023/01/30 10:30:47;;;;;;;17.40;10.38;;;;;;;-0.30;59.90;94970.31;5067787;28;20047;-78
2023/01/30 10:33:38;;;;;;;19.83;9.80;;;;;;;-0.27;60.02;94964.19;5065270;28;20056;-77
2023/01/30 10:36:09;;;;;;;18.30;9.20;;;;;;;-0.25;60.32;94965.75;5065602;28;20120;-77
2023/01/30 10:38:45;;;;;;;22.40;9.93;;;;;;;-0.23;59.72;94955.34;5066279;28;20124;-78
2023/01/30 10:41:23;;;;;;;19.15;9.70;;;;;;;-0.21;59.69;94947.66;5066652;28;20111;-76
2023/01/30 10:44:01;;;;;;;17.00;9.63;;;;;;;-0.16;59.19;94952.75;5067125;28;20035;-77
2023/01/30 10:46:38;;;;;;;17.83;8.85;;;;;;;-0.22;59.29;94927.97;5067034;28;20097;-76
2023/01/30 10:49:18;;;;;;;17.10;8.07;;;;;;;-0.21;59.17;94924.13;5065348;28;20120;-77
2023/01/30 10:52:20;;;;;;;15.40;8.30;;;;;;;-0.20;59.40;94927.59;5065728;28;20021;-75
2023/01/30 10:55:09;;;;;;;19.17;9.75;;;;;;;-0.17;59.82;94921.44;5067301;28;20043;-76
2023/01/30 10:58:02;;;;;;;16.17;8.52;;;;;;;-0.10;59.38;94910.75;5065178;28;20068;-76
2023/01/30 11:00:50;;;;;;;19.13;8.93;;;;;;;-0.14;59.18;94899.09;5066863;28;20089;-78
2023/01/30 11:04:11;;;;;;;18.38;9.38;;;;;;;-0.11;59.41;94904.56;5066258;28;20281;-76
2023/01/30 11:06:37;;;;;;;18.42;8.50;;;;;;;-0.09;58.92;94891.44;5003629;28;20436;-77
2023/01/30 11:09:02;;;;;;;19.60;8.70;;;;;;;-0.17;59.36;94895.22;4988463;28;20042;-77
2023/01/30 11:11:32;;;;;;;22.90;9.90;;;;;;;-0.15;59.81;94886.75;4987981;28;20818;-76
2023/01/30 11:14:05;;;;;;;15.93;8.38;;;;;;;-0.13;59.17;94873.63;4987986;28;20108;-77
2023/01/30 11:16:30;;;;;;;20.40;8.60;;;;;;;-0.14;59.17;94875.56;4987934;28;20045;-76
2023/01/30 11:18:58;;;;;;;15.82;8.48;;;;;;;-0.16;59.22;94863.56;5004080;28;20050;-76
2023/01/30 11:21:29;;;;;;;21.23;9.73;;;;;;;-0.18;59.60;94855.03;5004429;28;20034;-76
2023/01/30 11:23:54;;;;;;;25.25;10.35;;;;;;;-0.16;59.46;94855.47;4975309;28;20030;-77
2023/01/30 11:26:31;;;;;;;18.63;9.70;;;;;;;-0.06;59.47;94858.28;4988919;28;20061;-74
2023/01/30 11:28:57;;;;;;;16.25;8.43;;;;;;;0.03;59.04;94852.56;5004457;28;20496;-76
2023/01/30 11:31:28;;;;;;;18.63;8.75;;;;;;;-0.01;58.86;94852.53;5004055;28;20042;-77
2023/01/30 11:34:05;;;;;;;16.60;9.68;;;;;;;0.10;58.47;94838.34;4988064;28;20033;-76
2023/01/30 11:36:34;;;;;;;20.92;9.90;;;;;;;0.18;58.30;94832.66;4987454;28;20399;-76
2023/01/30 11:39:03;;;;;;;19.98;9.77;;;;;;;0.36;58.34;94834.72;4971817;28;20034;-77
2023/01/30 11:41:29;;;;;;;19.45;9.95;;;;;;;0.33;57.44;94836.25;5003465;28;20041;-77